ADDS TAF Board (Experimental) INFO Settings
IDs: Format: Expanded Condensed

KSEA - Seattle-Tacoma Intl, WA, US

Issued at 0524 UTC 31 Jul 2016
Updated at 0718 UTC 31 Jul 2016
Time0653Z 31/08Z 31/09Z 31/10Z 31/11Z 31/12Z 31/13Z 31/14Z 31/15Z 31/16Z 31/17Z 31/18Z 31/19Z 31/20Z
Type OBS PRVL PRVL PRVL PRVL PRVL PRVL PRVL PRVL PRVL PRVL PRVL PRVL PRVL
VIS 10 >6 >6 >6 >6 >6 >6 >6 >6 >6 >6 >6 >6 >6
CIG -- -- -- 15 15 15 15 15 15 15 20 20 -- --
Cover FEW FEW FEW OVC OVC OVC OVC OVC OVC OVC BKN BKN SCT SCT
FltCat VFR VFR VFR MVFR MVFR MVFR MVFR MVFR MVFR MVFR MVFR MVFR VFR VFR
WX -- -- -- -- -- -- -- -- -- -- -- -- -- --
WDir 210 220 220 190 190 190 190 190 190 190 200 200 230 230
WSpd 6 10 10 8 8 8 8 8 8 8 6 6 6 6
WGst -- -- -- -- -- -- -- -- -- -- -- -- -- --
R16/34
XWnd -3 -6 -6 -1 -1 -1 -1 -1 -1 -1 -2 -2 -5 -5
HWnd 5 8 8 8 8 8 8 8 8 8 6 6 4 4

Raw TAF
KSEA 310524Z 3106/0112 22010KT P6SM FEW060
  FM311000 19008KT P6SM OVC015
  FM311700 20006KT P6SM BKN020
  FM311900 23006KT P6SM SCT100 SCT250
  FM010100 33005KT P6SM FEW100


Raw METAR
KSEA 310653Z 21006KT 10SM FEW060 15/12 A2998 RMK AO2 SLP158 T01500117 $
KSEA 310553Z 22007KT 10SM FEW060 16/12 A2997 RMK AO2 SLP154 T01610117 10239 20161 52017
KSEA 310453Z 22011KT 10SM FEW060 FEW200 17/12 A2996 RMK AO2 SLP149 T01720117

METAR Board
Radar Display
Forecast Discussion

TAF Board Legend

Potential Impact
Threat None Slight Moderate High
Visibility (sm) ≥5.1 5.1>X≥3 3>X≥1 <1
Ceiling (100 ft) ≥30.1 30.1>X≥10 10>X≥5 <5
Wind Speed (kt) <10 10≤X<20 20≤X<30 ≥30
Wind Gust (kt) <15 15≤X<25 25≤X<35 ≥35
Weather No Wx Reported VCTS,-TS,-FZRA,SN TS,FZRA +TS,+FZRA,+SN